»·PEaware :: N343GE KSMF-KSLC

N343GE :: KSMF-KSLC

FLIGHT INFORMATION

Flight Status: Arrived
Operator: Privately registered:
United States
More flights under this callsign
Pilot: Hyatt B. (30410)
Aircraft: SOCATA TBM-900
(TBM9)
More flights by this aircraft type
Origin: KSMF Sacramento Intl
United States
Destination: KSLC Salt Lake City Intl
United States
More flights between these airports :: More routes between these airports
Route: SCTWN3 MACUS BVL BVL2
File this flight plan on PilotEdge
Remarks:
Altitude:
(Current/Filed)
29,000ft
Speed:
(Current/Filed)
220kts
Departed: 20-Jul-20 05:39 PM
Arrived: 20-Jul-20 07:47 PM
Distance/Time
Traveled:
462nm/2:07
Distance/Time
To Go:
Arrived

Flight Plot

Page will automatically refresh every two minutes.

Flight plan parsing failed; only flown route is shown


Map Options




Map Legend


Flown Route
Filed Route
Departure Airport
Arrival Airport
Navaid (VOR, NDB)
Fix

Horizontal Profiles

Position Reports

Time Latitude Longitude Heading Altitude Ground
Speed
20-Jul-20 17:13 38.684569 -121.596772 129 23ft 0kts
20-Jul-20 17:14 38.684569 -121.596772 129 23ft 0kts
20-Jul-20 17:15 38.684569 -121.596772 129 23ft 0kts
20-Jul-20 17:16 38.684569 -121.596772 129 23ft 0kts
20-Jul-20 17:17 38.684569 -121.596772 129 23ft 0kts
20-Jul-20 17:18 38.684569 -121.596772 129 23ft 0kts
20-Jul-20 17:19 38.684569 -121.596772 129 23ft 0kts
20-Jul-20 17:20 38.684569 -121.596772 129 23ft 0kts
20-Jul-20 17:21 38.684569 -121.596772 129 23ft 0kts
20-Jul-20 17:22 38.684569 -121.596772 129 23ft 0kts
20-Jul-20 17:23 38.684569 -121.596772 129 23ft 0kts
20-Jul-20 17:24 38.684569 -121.596772 129 23ft 0kts
20-Jul-20 17:26 38.684569 -121.596772 129 23ft 0kts
20-Jul-20 17:27 38.684541 -121.596727 129 23ft 3kts
20-Jul-20 17:28 38.683404 -121.596126 233 20ft 6kts
20-Jul-20 17:29 38.683816 -121.597149 271 21ft 9kts
20-Jul-20 17:30 38.684959 -121.598843 359 23ft 12kts
20-Jul-20 17:31 38.689271 -121.598775 359 23ft 16kts
20-Jul-20 17:32 38.693171 -121.598714 0 26ft 19kts
20-Jul-20 17:33 38.697356 -121.598638 0 26ft 18kts
20-Jul-20 17:34 38.701970 -121.598559 0 26ft 9kts
20-Jul-20 17:35 38.704690 -121.598515 0 26ft 12kts
20-Jul-20 17:36 38.706992 -121.598598 322 26ft 7kts
20-Jul-20 17:37 38.707202 -121.599760 269 26ft 0kts
20-Jul-20 17:38 38.706986 -121.600855 224 26ft 7kts
20-Jul-20 17:39 38.689324 -121.601089 176 691ft 121kts
20-Jul-20 17:40 38.671538 -121.567957 87 2243ft 137kts
20-Jul-20 17:41 38.657386 -121.524882 117 3621ft 137kts
20-Jul-20 17:42 38.641039 -121.479925 116 4935ft 138kts
20-Jul-20 17:42 38.631045 -121.438823 90 6180ft 156kts
20-Jul-20 17:43 38.632700 -121.376947 89 7904ft 178kts
20-Jul-20 17:45 38.634636 -121.302325 89 10048ft 181kts
20-Jul-20 17:45 38.636051 -121.246815 89 11333ft 187kts
20-Jul-20 17:46 38.637739 -121.179401 89 12845ft 187kts
20-Jul-20 17:47 38.639372 -121.112345 89 14358ft 183kts
20-Jul-20 17:48 38.640913 -121.047404 88 15860ft 177kts
20-Jul-20 17:49 38.642398 -120.983227 88 17104ft 183kts
20-Jul-20 17:50 38.643914 -120.916884 87 18125ft 189kts
20-Jul-20 17:51 38.645443 -120.847937 88 19157ft 199kts
20-Jul-20 17:52 38.647049 -120.773182 88 20216ft 210kts
20-Jul-20 17:53 38.653512 -120.698232 52 21211ft 216kts
20-Jul-20 17:54 38.693080 -120.638794 51 22245ft 216kts
20-Jul-20 17:55 38.732820 -120.579094 51 23251ft 215kts
20-Jul-20 18:13 38.745716 -120.559705 51 23577ft 214kts
20-Jul-20 18:14 38.784888 -120.500711 51 24573ft 212kts
20-Jul-20 18:15 38.823519 -120.442426 51 25570ft 215kts
20-Jul-20 18:16 38.864012 -120.381191 51 26615ft 227kts
20-Jul-20 18:17 38.905658 -120.318138 52 27636ft 231kts
20-Jul-20 18:18 38.947161 -120.255154 52 28627ft 236kts
20-Jul-20 18:19 38.993421 -120.184793 52 29242ft 260kts
20-Jul-20 18:20 39.044928 -120.106275 52 29236ft 283kts
20-Jul-20 18:21 39.099662 -120.022648 52 29234ft 290kts
20-Jul-20 18:22 39.152893 -119.941088 52 29211ft 293kts
20-Jul-20 18:23 39.208068 -119.856325 52 29171ft 294kts
20-Jul-20 18:24 39.264165 -119.769913 52 29108ft 294kts
20-Jul-20 18:25 39.321132 -119.681907 52 29085ft 295kts
20-Jul-20 18:26 39.378461 -119.593105 52 29093ft 301kts
20-Jul-20 18:27 39.437040 -119.502108 52 29089ft 303kts
20-Jul-20 18:28 39.496398 -119.409623 52 29065ft 304kts
20-Jul-20 18:29 39.552606 -119.321803 52 29056ft 304kts
20-Jul-20 18:30 39.610707 -119.230762 52 29043ft 305kts
20-Jul-20 18:31 39.667964 -119.140778 52 29013ft 311kts
20-Jul-20 18:32 39.726775 -119.048097 52 29006ft 313kts
20-Jul-20 18:33 39.785163 -118.955795 52 28994ft 315kts
20-Jul-20 18:34 39.843653 -118.862959 51 28978ft 319kts
20-Jul-20 18:35 39.892109 -118.758217 78 28994ft 325kts
20-Jul-20 18:36 39.914557 -118.635994 77 28992ft 328kts
20-Jul-20 18:37 39.937703 -118.513446 77 28992ft 329kts
20-Jul-20 18:38 39.960882 -118.389979 77 28992ft 329kts
20-Jul-20 18:39 39.983420 -118.269182 77 28991ft 329kts
20-Jul-20 18:40 40.005257 -118.151413 77 28992ft 329kts
20-Jul-20 18:41 40.026954 -118.033702 77 28992ft 329kts
20-Jul-20 18:42 40.048445 -117.916369 77 28992ft 329kts
20-Jul-20 18:43 40.069655 -117.799846 77 29005ft 329kts
20-Jul-20 18:44 40.090642 -117.683841 77 29060ft 328kts
20-Jul-20 18:45 40.111618 -117.567241 77 29086ft 328kts
20-Jul-20 18:46 40.133058 -117.447260 77 29073ft 329kts
20-Jul-20 18:47 40.154100 -117.328732 78 29061ft 329kts
20-Jul-20 18:48 40.175189 -117.209218 78 29053ft 329kts
20-Jul-20 18:49 40.196074 -117.090064 78 29054ft 329kts
20-Jul-20 18:50 40.217334 -116.967945 78 29054ft 329kts
20-Jul-20 18:51 40.237967 -116.848712 78 29045ft 330kts
20-Jul-20 18:52 40.258173 -116.731158 77 28657ft 331kts
20-Jul-20 18:53 40.278197 -116.613912 77 28386ft 327kts
20-Jul-20 18:54 40.297830 -116.498217 78 28376ft 321kts
20-Jul-20 18:55 40.317760 -116.379957 78 28374ft 319kts
20-Jul-20 18:56 40.337415 -116.262543 78 28371ft 319kts
20-Jul-20 18:57 40.356625 -116.147102 78 28367ft 318kts
20-Jul-20 18:58 40.375785 -116.031138 78 28365ft 318kts
20-Jul-20 18:59 40.394698 -115.915951 78 28364ft 318kts
20-Jul-20 19:00 40.413617 -115.799926 78 28364ft 318kts
20-Jul-20 19:01 40.432052 -115.686119 78 28365ft 318kts
20-Jul-20 19:02 40.450346 -115.572456 78 28367ft 318kts
20-Jul-20 19:03 40.468529 -115.458725 78 28362ft 319kts
20-Jul-20 19:04 40.487511 -115.339177 79 27696ft 331kts
20-Jul-20 19:05 40.507177 -115.214433 79 26968ft 335kts
20-Jul-20 19:06 40.526360 -115.091720 78 26111ft 329kts
20-Jul-20 19:07 40.544911 -114.972347 77 24882ft 330kts
20-Jul-20 19:08 40.563685 -114.850640 77 23443ft 321kts
20-Jul-20 19:09 40.580613 -114.740095 77 21980ft 291kts
20-Jul-20 19:10 40.597172 -114.631187 77 20479ft 282kts
20-Jul-20 19:11 40.612454 -114.530123 77 19449ft 267kts
20-Jul-20 19:12 40.626659 -114.435519 77 18640ft 261kts
20-Jul-20 19:13 40.640558 -114.342485 77 17986ft 253kts
20-Jul-20 19:14 40.653622 -114.254594 78 18006ft 247kts
20-Jul-20 19:15 40.667592 -114.159909 78 18002ft 261kts
20-Jul-20 19:16 40.681844 -114.062827 78 18000ft 264kts
20-Jul-20 19:17 40.695960 -113.966057 78 17999ft 265kts
20-Jul-20 19:18 40.710079 -113.868657 78 17999ft 265kts
20-Jul-20 19:20 40.724094 -113.771376 78 17999ft 265kts
20-Jul-20 19:21 40.726062 -113.672597 89 17999ft 265kts
20-Jul-20 19:22 40.725948 -113.574152 89 17999ft 265kts
20-Jul-20 19:23 40.725747 -113.473411 89 17355ft 275kts
20-Jul-20 19:24 40.725476 -113.376779 89 16723ft 254kts
20-Jul-20 19:25 40.725127 -113.283978 90 16393ft 243kts
20-Jul-20 19:26 40.724729 -113.195836 90 16170ft 238kts
20-Jul-20 19:27 40.724259 -113.106063 90 16140ft 232kts
20-Jul-20 19:28 40.723727 -113.019348 89 16035ft 237kts
20-Jul-20 19:29 40.723093 -112.929078 88 16028ft 243kts
20-Jul-20 19:30 40.722406 -112.836827 87 16026ft 248kts
20-Jul-20 19:31 40.721643 -112.742985 87 16027ft 253kts
20-Jul-20 19:32 40.720767 -112.647378 87 16026ft 255kts
20-Jul-20 19:33 40.719806 -112.551327 87 16027ft 255kts
20-Jul-20 19:34 40.728698 -112.457961 77 16027ft 253kts
20-Jul-20 19:35 40.700189 -112.372504 116 16028ft 260kts
20-Jul-20 19:35 40.670709 -112.303020 117 16026ft 260kts
20-Jul-20 19:37 40.633655 -112.203296 111 15482ft 254kts
20-Jul-20 19:38 40.605714 -112.119509 111 14146ft 242kts
20-Jul-20 19:38 40.594039 -112.050908 91 12691ft 215kts
20-Jul-20 19:39 40.589127 -111.975690 91 10814ft 198kts
20-Jul-20 19:41 40.628188 -111.946634 351 8675ft 167kts
20-Jul-20 19:41 40.663983 -111.953877 351 7111ft 147kts
20-Jul-20 19:42 40.698867 -111.961560 354 5992ft 117kts
20-Jul-20 19:43 40.731241 -111.962066 359 5331ft 115kts
20-Jul-20 19:44 40.756772 -111.962093 358 4739ft 78kts
20-Jul-20 19:45 40.779745 -111.962111 0 4222ft 69kts
20-Jul-20 19:46 40.786857 -111.961890 15 4222ft 12kts
20-Jul-20 19:47 40.789343 -111.960258 22 4219ft 10kts
20-Jul-20 19:48 40.789939 -111.958688 89 4219ft 0kts
20-Jul-20 19:49 40.789939 -111.958688 89 4219ft 0kts
20-Jul-20 19:50 40.789939 -111.958688 89 4220ft 0kts
20-Jul-20 19:51 40.789939 -111.958688 89 4219ft 0kts

Navigation Log

Ident Type
Flight plan parsing failed, navigation log unavailable